sensor_id;sensor_type;location;lat;lon;timestamp;P1;durP1;ratioP1;P2;durP2;ratioP2
44204;SDS011;30163;42.698;23.344;2022-10-16T00:00:16;36.13;;;20.88;;
44204;SDS011;30163;42.698;23.344;2022-10-16T00:02:42;31.48;;;18.38;;
44204;SDS011;30163;42.698;23.344;2022-10-16T00:05:07;44.35;;;19.92;;
44204;SDS011;30163;42.698;23.344;2022-10-16T00:07:33;45.65;;;20.17;;
44204;SDS011;30163;42.698;23.344;2022-10-16T00:09:58;41.17;;;20.52;;
44204;SDS011;30163;42.698;23.344;2022-10-16T00:12:23;38.78;;;22.65;;
44204;SDS011;30163;42.698;23.344;2022-10-16T00:14:49;45.55;;;21.83;;
44204;SDS011;30163;42.698;23.344;2022-10-16T00:17:14;47.38;;;22.40;;
44204;SDS011;30163;42.698;23.344;2022-10-16T00:19:39;48.03;;;21.77;;
44204;SDS011;30163;42.698;23.344;2022-10-16T00:22:05;49.00;;;22.00;;
44204;SDS011;30163;42.698;23.344;2022-10-16T00:24:30;44.65;;;22.33;;
44204;SDS011;30163;42.698;23.344;2022-10-16T00:26:56;46.13;;;22.88;;
44204;SDS011;30163;42.698;23.344;2022-10-16T00:29:21;45.35;;;22.33;;
44204;SDS011;30163;42.698;23.344;2022-10-16T00:31:46;45.33;;;21.65;;
44204;SDS011;30163;42.698;23.344;2022-10-16T00:34:12;46.28;;;22.17;;
44204;SDS011;30163;42.698;23.344;2022-10-16T00:36:37;40.30;;;21.27;;
44204;SDS011;30163;42.698;23.344;2022-10-16T00:39:03;48.38;;;22.77;;
44204;SDS011;30163;42.698;23.344;2022-10-16T00:41:29;47.33;;;23.85;;
44204;SDS011;30163;42.698;23.344;2022-10-16T00:43:55;53.75;;;25.30;;
44204;SDS011;30163;42.698;23.344;2022-10-16T00:46:35;53.55;;;22.63;;
44204;SDS011;30163;42.698;23.344;2022-10-16T00:49:36;43.20;;;21.15;;
44204;SDS011;30163;42.698;23.344;2022-10-16T00:51:54;43.42;;;21.88;;
44204;SDS011;30163;42.698;23.344;2022-10-16T00:54:22;51.80;;;21.17;;
44204;SDS011;30163;42.698;23.344;2022-10-16T00:56:48;44.83;;;21.20;;
44204;SDS011;30163;42.698;23.344;2022-10-16T00:59:15;43.10;;;21.77;;
44204;SDS011;30163;42.698;23.344;2022-10-16T01:01:49;37.35;;;21.13;;
44204;SDS011;30163;42.698;23.344;2022-10-16T01:04:16;45.53;;;22.00;;
44204;SDS011;30163;42.698;23.344;2022-10-16T01:09:35;38.83;;;20.48;;
44204;SDS011;30163;42.698;23.344;2022-10-16T01:12:09;37.15;;;20.13;;
44204;SDS011;30163;42.698;23.344;2022-10-16T01:17:11;42.83;;;23.40;;
44204;SDS011;30163;42.698;23.344;2022-10-16T01:22:37;46.45;;;21.67;;
44204;SDS011;30163;42.698;23.344;2022-10-16T01:25:05;47.38;;;21.30;;
44204;SDS011;30163;42.698;23.344;2022-10-16T01:27:34;47.35;;;21.77;;
44204;SDS011;30163;42.698;23.344;2022-10-16T01:32:42;42.17;;;22.38;;
44204;SDS011;30163;42.698;23.344;2022-10-16T01:35:32;47.83;;;23.40;;
44204;SDS011;30163;42.698;23.344;2022-10-16T01:38:06;53.42;;;24.70;;
44204;SDS011;30163;42.698;23.344;2022-10-16T01:40:34;41.25;;;24.38;;
44204;SDS011;30163;42.698;23.344;2022-10-16T01:43:08;42.72;;;22.92;;
44204;SDS011;30163;42.698;23.344;2022-10-16T01:45:35;50.95;;;25.02;;
44204;SDS011;30163;42.698;23.344;2022-10-16T01:48:02;63.05;;;23.90;;
44204;SDS011;30163;42.698;23.344;2022-10-16T01:50:30;54.67;;;26.23;;
44204;SDS011;30163;42.698;23.344;2022-10-16T01:52:57;53.20;;;24.00;;
44204;SDS011;30163;42.698;23.344;2022-10-16T01:55:28;50.50;;;23.02;;
44204;SDS011;30163;42.698;23.344;2022-10-16T01:57:55;45.03;;;23.95;;
44204;SDS011;30163;42.698;23.344;2022-10-16T02:00:21;41.83;;;22.05;;
44204;SDS011;30163;42.698;23.344;2022-10-16T02:02:48;43.50;;;23.20;;
44204;SDS011;30163;42.698;23.344;2022-10-16T02:05:16;53.63;;;22.90;;
44204;SDS011;30163;42.698;23.344;2022-10-16T02:07:43;42.10;;;20.13;;
44204;SDS011;30163;42.698;23.344;2022-10-16T02:10:09;42.03;;;20.00;;
44204;SDS011;30163;42.698;23.344;2022-10-16T02:12:35;44.60;;;20.77;;
44204;SDS011;30163;42.698;23.344;2022-10-16T02:15:04;38.38;;;19.63;;
44204;SDS011;30163;42.698;23.344;2022-10-16T02:17:30;37.33;;;18.98;;
44204;SDS011;30163;42.698;23.344;2022-10-16T02:19:56;36.50;;;17.98;;
44204;SDS011;30163;42.698;23.344;2022-10-16T02:22:23;40.75;;;18.75;;
44204;SDS011;30163;42.698;23.344;2022-10-16T02:25:00;44.70;;;19.83;;
44204;SDS011;30163;42.698;23.344;2022-10-16T02:27:34;39.42;;;18.38;;
44204;SDS011;30163;42.698;23.344;2022-10-16T02:30:24;33.88;;;18.52;;
44204;SDS011;30163;42.698;23.344;2022-10-16T02:33:00;36.22;;;15.50;;
44204;SDS011;30163;42.698;23.344;2022-10-16T02:35:26;32.47;;;16.92;;
44204;SDS011;30163;42.698;23.344;2022-10-16T02:37:52;38.00;;;17.88;;
44204;SDS011;30163;42.698;23.344;2022-10-16T02:40:18;30.73;;;16.17;;
44204;SDS011;30163;42.698;23.344;2022-10-16T02:42:44;31.25;;;17.48;;
44204;SDS011;30163;42.698;23.344;2022-10-16T02:45:10;33.85;;;17.27;;
44204;SDS011;30163;42.698;23.344;2022-10-16T02:47:36;38.05;;;18.40;;
44204;SDS011;30163;42.698;23.344;2022-10-16T02:50:02;33.42;;;17.42;;
44204;SDS011;30163;42.698;23.344;2022-10-16T02:52:28;30.08;;;16.65;;
44204;SDS011;30163;42.698;23.344;2022-10-16T02:54:53;33.88;;;18.50;;
44204;SDS011;30163;42.698;23.344;2022-10-16T02:57:19;37.70;;;18.10;;
44204;SDS011;30163;42.698;23.344;2022-10-16T02:59:44;35.17;;;18.65;;
44204;SDS011;30163;42.698;23.344;2022-10-16T03:02:10;40.08;;;19.48;;
44204;SDS011;30163;42.698;23.344;2022-10-16T03:04:36;40.88;;;21.17;;
44204;SDS011;30163;42.698;23.344;2022-10-16T03:07:02;46.72;;;23.27;;
44204;SDS011;30163;42.698;23.344;2022-10-16T03:09:27;47.97;;;25.95;;
44204;SDS011;30163;42.698;23.344;2022-10-16T03:11:53;44.53;;;24.88;;
44204;SDS011;30163;42.698;23.344;2022-10-16T03:14:18;43.47;;;21.92;;
44204;SDS011;30163;42.698;23.344;2022-10-16T03:16:44;39.65;;;21.58;;
44204;SDS011;30163;42.698;23.344;2022-10-16T03:19:09;39.55;;;19.33;;
44204;SDS011;30163;42.698;23.344;2022-10-16T03:21:34;39.40;;;19.95;;
44204;SDS011;30163;42.698;23.344;2022-10-16T03:24:00;37.40;;;19.40;;
44204;SDS011;30163;42.698;23.344;2022-10-16T03:26:25;41.85;;;19.55;;
44204;SDS011;30163;42.698;23.344;2022-10-16T03:28:51;40.17;;;19.58;;
44204;SDS011;30163;42.698;23.344;2022-10-16T03:31:16;46.63;;;19.45;;
44204;SDS011;30163;42.698;23.344;2022-10-16T03:33:41;37.45;;;20.27;;
44204;SDS011;30163;42.698;23.344;2022-10-16T03:36:07;52.67;;;22.52;;
44204;SDS011;30163;42.698;23.344;2022-10-16T03:38:32;42.55;;;20.38;;
44204;SDS011;30163;42.698;23.344;2022-10-16T03:40:58;37.63;;;19.65;;
44204;SDS011;30163;42.698;23.344;2022-10-16T03:43:23;41.47;;;20.52;;
44204;SDS011;30163;42.698;23.344;2022-10-16T03:45:52;47.35;;;21.75;;
44204;SDS011;30163;42.698;23.344;2022-10-16T03:48:18;43.70;;;22.95;;
44204;SDS011;30163;42.698;23.344;2022-10-16T03:50:44;46.63;;;21.08;;
44204;SDS011;30163;42.698;23.344;2022-10-16T03:53:12;50.17;;;21.92;;
44204;SDS011;30163;42.698;23.344;2022-10-16T03:55:40;50.38;;;22.20;;
44204;SDS011;30163;42.698;23.344;2022-10-16T03:58:07;51.47;;;21.95;;
44204;SDS011;30163;42.698;23.344;2022-10-16T04:00:32;57.45;;;21.50;;
44204;SDS011;30163;42.698;23.344;2022-10-16T04:02:58;53.33;;;21.92;;
44204;SDS011;30163;42.698;23.344;2022-10-16T04:05:23;50.63;;;22.38;;
44204;SDS011;30163;42.698;23.344;2022-10-16T04:07:49;49.42;;;21.92;;
44204;SDS011;30163;42.698;23.344;2022-10-16T04:10:14;51.08;;;21.90;;
44204;SDS011;30163;42.698;23.344;2022-10-16T04:12:40;48.22;;;21.73;;
44204;SDS011;30163;42.698;23.344;2022-10-16T04:15:05;43.95;;;22.75;;
44204;SDS011;30163;42.698;23.344;2022-10-16T04:17:31;46.58;;;20.90;;
44204;SDS011;30163;42.698;23.344;2022-10-16T04:19:56;54.90;;;23.52;;
44204;SDS011;30163;42.698;23.344;2022-10-16T04:22:21;43.20;;;22.15;;
44204;SDS011;30163;42.698;23.344;2022-10-16T04:24:47;48.55;;;22.65;;
44204;SDS011;30163;42.698;23.344;2022-10-16T04:27:12;43.72;;;23.13;;
44204;SDS011;30163;42.698;23.344;2022-10-16T04:29:38;40.35;;;21.60;;
44204;SDS011;30163;42.698;23.344;2022-10-16T04:32:03;48.85;;;22.48;;
44204;SDS011;30163;42.698;23.344;2022-10-16T04:34:28;44.70;;;22.85;;
44204;SDS011;30163;42.698;23.344;2022-10-16T04:36:54;43.75;;;22.35;;
44204;SDS011;30163;42.698;23.344;2022-10-16T04:39:19;44.58;;;20.52;;
44204;SDS011;30163;42.698;23.344;2022-10-16T04:41:45;53.35;;;22.23;;
44204;SDS011;30163;42.698;23.344;2022-10-16T04:44:10;51.45;;;22.40;;
44204;SDS011;30163;42.698;23.344;2022-10-16T04:46:35;41.85;;;21.52;;
44204;SDS011;30163;42.698;23.344;2022-10-16T04:49:01;52.45;;;22.65;;
44204;SDS011;30163;42.698;23.344;2022-10-16T04:51:26;46.03;;;22.85;;
44204;SDS011;30163;42.698;23.344;2022-10-16T04:53:52;44.53;;;21.00;;
44204;SDS011;30163;42.698;23.344;2022-10-16T04:56:19;36.47;;;19.95;;
44204;SDS011;30163;42.698;23.344;2022-10-16T04:58:45;41.10;;;21.20;;
44204;SDS011;30163;42.698;23.344;2022-10-16T05:01:11;47.00;;;21.30;;
44204;SDS011;30163;42.698;23.344;2022-10-16T05:03:36;41.60;;;20.52;;
44204;SDS011;30163;42.698;23.344;2022-10-16T05:06:01;44.78;;;22.75;;
44204;SDS011;30163;42.698;23.344;2022-10-16T05:08:29;41.97;;;20.40;;
44204;SDS011;30163;42.698;23.344;2022-10-16T05:10:54;37.70;;;20.20;;
44204;SDS011;30163;42.698;23.344;2022-10-16T05:13:20;39.00;;;19.73;;
44204;SDS011;30163;42.698;23.344;2022-10-16T05:15:48;38.15;;;20.83;;
44204;SDS011;30163;42.698;23.344;2022-10-16T05:18:14;42.70;;;20.02;;
44204;SDS011;30163;42.698;23.344;2022-10-16T05:20:40;38.40;;;20.10;;
44204;SDS011;30163;42.698;23.344;2022-10-16T05:23:06;39.85;;;19.13;;
44204;SDS011;30163;42.698;23.344;2022-10-16T05:25:31;41.55;;;18.40;;
44204;SDS011;30163;42.698;23.344;2022-10-16T05:27:57;42.90;;;18.13;;
44204;SDS011;30163;42.698;23.344;2022-10-16T05:30:22;30.88;;;18.23;;
44204;SDS011;30163;42.698;23.344;2022-10-16T05:32:49;34.20;;;17.00;;
44204;SDS011;30163;42.698;23.344;2022-10-16T05:35:16;27.35;;;16.30;;
44204;SDS011;30163;42.698;23.344;2022-10-16T05:37:42;37.17;;;17.17;;
44204;SDS011;30163;42.698;23.344;2022-10-16T05:40:08;32.40;;;16.73;;
44204;SDS011;30163;42.698;23.344;2022-10-16T05:42:34;34.88;;;18.15;;
44204;SDS011;30163;42.698;23.344;2022-10-16T05:44:59;46.95;;;18.77;;
44204;SDS011;30163;42.698;23.344;2022-10-16T05:47:25;31.52;;;16.77;;
44204;SDS011;30163;42.698;23.344;2022-10-16T05:49:51;29.67;;;16.25;;
44204;SDS011;30163;42.698;23.344;2022-10-16T05:52:16;37.50;;;17.15;;
44204;SDS011;30163;42.698;23.344;2022-10-16T05:54:42;37.92;;;18.00;;
44204;SDS011;30163;42.698;23.344;2022-10-16T05:57:08;42.90;;;19.05;;
44204;SDS011;30163;42.698;23.344;2022-10-16T05:59:34;36.55;;;20.73;;
44204;SDS011;30163;42.698;23.344;2022-10-16T06:01:59;39.08;;;20.00;;
44204;SDS011;30163;42.698;23.344;2022-10-16T06:04:24;44.25;;;20.65;;
44204;SDS011;30163;42.698;23.344;2022-10-16T06:06:50;54.45;;;21.83;;
44204;SDS011;30163;42.698;23.344;2022-10-16T06:09:15;43.03;;;21.27;;
44204;SDS011;30163;42.698;23.344;2022-10-16T06:11:41;47.17;;;21.38;;
44204;SDS011;30163;42.698;23.344;2022-10-16T06:14:07;41.58;;;22.65;;
44204;SDS011;30163;42.698;23.344;2022-10-16T06:16:34;48.60;;;21.55;;
44204;SDS011;30163;42.698;23.344;2022-10-16T06:19:01;44.38;;;19.88;;
44204;SDS011;30163;42.698;23.344;2022-10-16T06:21:29;35.65;;;18.58;;
44204;SDS011;30163;42.698;23.344;2022-10-16T06:23:55;40.55;;;20.52;;
44204;SDS011;30163;42.698;23.344;2022-10-16T06:26:22;40.78;;;20.13;;
44204;SDS011;30163;42.698;23.344;2022-10-16T06:28:48;39.72;;;21.13;;
44204;SDS011;30163;42.698;23.344;2022-10-16T06:31:14;45.55;;;20.08;;
44204;SDS011;30163;42.698;23.344;2022-10-16T06:33:40;40.33;;;21.10;;
44204;SDS011;30163;42.698;23.344;2022-10-16T06:36:08;41.28;;;22.08;;
44204;SDS011;30163;42.698;23.344;2022-10-16T06:38:41;36.90;;;21.33;;
44204;SDS011;30163;42.698;23.344;2022-10-16T06:41:07;46.97;;;22.48;;
44204;SDS011;30163;42.698;23.344;2022-10-16T06:43:34;44.85;;;22.13;;
44204;SDS011;30163;42.698;23.344;2022-10-16T06:46:03;44.65;;;21.23;;
44204;SDS011;30163;42.698;23.344;2022-10-16T06:48:30;48.38;;;23.55;;
44204;SDS011;30163;42.698;23.344;2022-10-16T06:53:25;45.78;;;17.92;;
44204;SDS011;30163;42.698;23.344;2022-10-16T06:55:51;35.15;;;18.63;;
44204;SDS011;30163;42.698;23.344;2022-10-16T06:58:17;44.53;;;19.25;;
44204;SDS011;30163;42.698;23.344;2022-10-16T07:00:42;29.67;;;16.88;;
44204;SDS011;30163;42.698;23.344;2022-10-16T07:03:08;36.63;;;16.58;;
44204;SDS011;30163;42.698;23.344;2022-10-16T07:05:37;27.95;;;14.82;;
44204;SDS011;30163;42.698;23.344;2022-10-16T07:08:03;33.10;;;16.10;;
44204;SDS011;30163;42.698;23.344;2022-10-16T07:10:30;35.90;;;17.17;;
44204;SDS011;30163;42.698;23.344;2022-10-16T07:12:56;31.52;;;15.00;;
44204;SDS011;30163;42.698;23.344;2022-10-16T07:15:21;37.97;;;16.73;;
44204;SDS011;30163;42.698;23.344;2022-10-16T07:17:46;33.30;;;15.60;;
44204;SDS011;30163;42.698;23.344;2022-10-16T07:20:12;28.73;;;15.55;;
44204;SDS011;30163;42.698;23.344;2022-10-16T07:22:37;28.30;;;15.77;;
44204;SDS011;30163;42.698;23.344;2022-10-16T07:25:03;36.50;;;16.73;;
44204;SDS011;30163;42.698;23.344;2022-10-16T07:27:28;30.40;;;16.77;;
44204;SDS011;30163;42.698;23.344;2022-10-16T07:29:54;26.60;;;15.82;;
44204;SDS011;30163;42.698;23.344;2022-10-16T07:32:19;32.67;;;16.70;;
44204;SDS011;30163;42.698;23.344;2022-10-16T07:34:45;27.73;;;16.05;;
44204;SDS011;30163;42.698;23.344;2022-10-16T07:37:10;33.15;;;17.05;;
44204;SDS011;30163;42.698;23.344;2022-10-16T07:39:36;33.08;;;15.90;;
44204;SDS011;30163;42.698;23.344;2022-10-16T07:42:01;30.40;;;16.27;;
44204;SDS011;30163;42.698;23.344;2022-10-16T07:44:27;36.38;;;15.70;;
44204;SDS011;30163;42.698;23.344;2022-10-16T07:46:52;34.65;;;15.85;;
44204;SDS011;30163;42.698;23.344;2022-10-16T07:49:18;29.45;;;16.65;;
44204;SDS011;30163;42.698;23.344;2022-10-16T07:51:43;36.85;;;17.15;;
44204;SDS011;30163;42.698;23.344;2022-10-16T07:54:09;31.15;;;15.90;;
44204;SDS011;30163;42.698;23.344;2022-10-16T07:56:35;26.75;;;14.65;;
44204;SDS011;30163;42.698;23.344;2022-10-16T07:59:00;25.33;;;14.50;;
44204;SDS011;30163;42.698;23.344;2022-10-16T08:01:26;24.65;;;13.85;;
44204;SDS011;30163;42.698;23.344;2022-10-16T08:03:52;23.05;;;12.65;;
44204;SDS011;30163;42.698;23.344;2022-10-16T08:06:18;25.55;;;11.70;;
44204;SDS011;30163;42.698;23.344;2022-10-16T08:08:44;26.58;;;12.65;;
44204;SDS011;30163;42.698;23.344;2022-10-16T08:11:10;19.95;;;10.88;;
44204;SDS011;30163;42.698;23.344;2022-10-16T08:13:36;23.58;;;12.05;;
44204;SDS011;30163;42.698;23.344;2022-10-16T08:16:01;19.95;;;12.27;;
44204;SDS011;30163;42.698;23.344;2022-10-16T08:18:32;21.48;;;11.50;;
44204;SDS011;30163;42.698;23.344;2022-10-16T08:20:59;25.75;;;13.00;;
44204;SDS011;30163;42.698;23.344;2022-10-16T08:23:25;23.67;;;12.30;;
44204;SDS011;30163;42.698;23.344;2022-10-16T08:25:52;26.50;;;14.05;;
44204;SDS011;30163;42.698;23.344;2022-10-16T08:28:18;28.40;;;12.65;;
44204;SDS011;30163;42.698;23.344;2022-10-16T08:30:44;25.88;;;12.50;;
44204;SDS011;30163;42.698;23.344;2022-10-16T08:33:09;18.45;;;11.50;;
44204;SDS011;30163;42.698;23.344;2022-10-16T08:35:35;21.25;;;11.35;;
44204;SDS011;30163;42.698;23.344;2022-10-16T08:38:02;19.30;;;10.77;;
44204;SDS011;30163;42.698;23.344;2022-10-16T08:40:29;24.80;;;11.57;;
44204;SDS011;30163;42.698;23.344;2022-10-16T08:48:17;15.75;;;9.07;;
44204;SDS011;30163;42.698;23.344;2022-10-16T08:51:09;20.35;;;10.02;;
44204;SDS011;30163;42.698;23.344;2022-10-16T08:53:49;14.85;;;9.32;;
44204;SDS011;30163;42.698;23.344;2022-10-16T08:56:17;20.27;;;8.38;;
44204;SDS011;30163;42.698;23.344;2022-10-16T08:58:42;14.02;;;8.45;;
44204;SDS011;30163;42.698;23.344;2022-10-16T09:01:12;20.33;;;8.35;;
44204;SDS011;30163;42.698;23.344;2022-10-16T09:06:40;17.70;;;7.93;;
44204;SDS011;30163;42.698;23.344;2022-10-16T09:11:45;20.40;;;7.27;;
44204;SDS011;30163;42.698;23.344;2022-10-16T09:20:03;15.95;;;6.95;;
44204;SDS011;30163;42.698;23.344;2022-10-16T09:22:54;10.45;;;6.00;;
44204;SDS011;30163;42.698;23.344;2022-10-16T09:25:25;14.48;;;6.85;;
44204;SDS011;30163;42.698;23.344;2022-10-16T09:27:52;13.88;;;6.32;;
44204;SDS011;30163;42.698;23.344;2022-10-16T09:30:19;13.73;;;6.15;;
44204;SDS011;30163;42.698;23.344;2022-10-16T09:32:47;12.30;;;5.35;;
44204;SDS011;30163;42.698;23.344;2022-10-16T09:35:19;8.20;;;4.72;;
44204;SDS011;30163;42.698;23.344;2022-10-16T09:37:48;9.32;;;4.88;;
44204;SDS011;30163;42.698;23.344;2022-10-16T09:40:26;14.27;;;5.32;;
44204;SDS011;30163;42.698;23.344;2022-10-16T09:43:02;15.70;;;6.25;;
44204;SDS011;30163;42.698;23.344;2022-10-16T09:45:28;9.15;;;4.90;;
44204;SDS011;30163;42.698;23.344;2022-10-16T09:47:54;9.48;;;5.63;;
44204;SDS011;30163;42.698;23.344;2022-10-16T09:50:28;10.63;;;5.53;;
44204;SDS011;30163;42.698;23.344;2022-10-16T09:53:04;7.53;;;4.47;;
44204;SDS011;30163;42.698;23.344;2022-10-16T09:55:29;9.43;;;4.65;;
44204;SDS011;30163;42.698;23.344;2022-10-16T09:57:55;17.73;;;5.25;;
44204;SDS011;30163;42.698;23.344;2022-10-16T10:00:21;8.82;;;5.28;;
44204;SDS011;30163;42.698;23.344;2022-10-16T10:02:47;13.45;;;6.03;;
44204;SDS011;30163;42.698;23.344;2022-10-16T10:05:31;11.50;;;5.07;;
44204;SDS011;30163;42.698;23.344;2022-10-16T10:07:57;29.70;;;8.65;;
44204;SDS011;30163;42.698;23.344;2022-10-16T10:10:28;8.77;;;4.78;;
44204;SDS011;30163;42.698;23.344;2022-10-16T10:12:55;9.60;;;5.60;;
44204;SDS011;30163;42.698;23.344;2022-10-16T10:15:21;16.85;;;5.97;;
44204;SDS011;30163;42.698;23.344;2022-10-16T10:20:33;9.15;;;5.18;;
44204;SDS011;30163;42.698;23.344;2022-10-16T10:23:00;13.65;;;5.20;;
44204;SDS011;30163;42.698;23.344;2022-10-16T10:28:16;10.30;;;5.35;;
44204;SDS011;30163;42.698;23.344;2022-10-16T10:30:49;10.68;;;5.80;;
44204;SDS011;30163;42.698;23.344;2022-10-16T10:33:50;7.00;;;5.47;;
44204;SDS011;30163;42.698;23.344;2022-10-16T10:38:58;16.20;;;5.75;;
44204;SDS011;30163;42.698;23.344;2022-10-16T10:44:03;10.90;;;6.22;;
44204;SDS011;30163;42.698;23.344;2022-10-16T10:46:58;14.80;;;6.07;;
44204;SDS011;30163;42.698;23.344;2022-10-16T11:06:28;13.93;;;5.70;;
44204;SDS011;30163;42.698;23.344;2022-10-16T11:09:01;9.07;;;5.28;;
44204;SDS011;30163;42.698;23.344;2022-10-16T11:11:37;8.68;;;4.63;;
44204;SDS011;30163;42.698;23.344;2022-10-16T11:14:08;9.50;;;5.25;;
44204;SDS011;30163;42.698;23.344;2022-10-16T11:16:43;9.90;;;4.88;;
44204;SDS011;30163;42.698;23.344;2022-10-16T11:19:13;16.55;;;5.15;;
44204;SDS011;30163;42.698;23.344;2022-10-16T11:24:53;9.02;;;4.57;;
44204;SDS011;30163;42.698;23.344;2022-10-16T11:27:21;12.75;;;5.05;;
44204;SDS011;30163;42.698;23.344;2022-10-16T11:30:15;7.57;;;4.85;;
44204;SDS011;30163;42.698;23.344;2022-10-16T11:32:49;8.77;;;4.78;;
44204;SDS011;30163;42.698;23.344;2022-10-16T11:35:17;13.68;;;5.30;;
44204;SDS011;30163;42.698;23.344;2022-10-16T11:37:47;14.63;;;5.53;;
44204;SDS011;30163;42.698;23.344;2022-10-16T11:40:17;13.50;;;5.18;;
44204;SDS011;30163;42.698;23.344;2022-10-16T11:42:51;11.30;;;5.50;;
44204;SDS011;30163;42.698;23.344;2022-10-16T11:51:11;13.35;;;5.40;;
44204;SDS011;30163;42.698;23.344;2022-10-16T11:53:56;7.93;;;4.68;;
44204;SDS011;30163;42.698;23.344;2022-10-16T11:56:24;13.93;;;5.68;;
44204;SDS011;30163;42.698;23.344;2022-10-16T12:06:57;8.98;;;4.57;;
44204;SDS011;30163;42.698;23.344;2022-10-16T12:09:28;16.20;;;5.35;;
44204;SDS011;30163;42.698;23.344;2022-10-16T12:11:55;8.48;;;4.57;;
44204;SDS011;30163;42.698;23.344;2022-10-16T12:19:18;7.50;;;4.38;;
44204;SDS011;30163;42.698;23.344;2022-10-16T12:21:44;7.75;;;5.00;;
44204;SDS011;30163;42.698;23.344;2022-10-16T12:24:20;13.38;;;5.80;;
44204;SDS011;30163;42.698;23.344;2022-10-16T12:26:46;15.40;;;5.70;;
44204;SDS011;30163;42.698;23.344;2022-10-16T12:32:06;25.98;;;4.97;;
44204;SDS011;30163;42.698;23.344;2022-10-16T12:34:48;8.98;;;5.10;;
44204;SDS011;30163;42.698;23.344;2022-10-16T12:39:46;8.05;;;4.60;;
44204;SDS011;30163;42.698;23.344;2022-10-16T12:42:20;9.73;;;4.55;;
44204;SDS011;30163;42.698;23.344;2022-10-16T12:44:47;12.30;;;7.55;;
44204;SDS011;30163;42.698;23.344;2022-10-16T12:49:50;7.15;;;4.15;;
44204;SDS011;30163;42.698;23.344;2022-10-16T12:52:24;9.23;;;4.65;;
44204;SDS011;30163;42.698;23.344;2022-10-16T12:54:51;9.25;;;4.72;;
44204;SDS011;30163;42.698;23.344;2022-10-16T12:57:31;11.93;;;4.68;;
44204;SDS011;30163;42.698;23.344;2022-10-16T13:11:20;6.80;;;3.50;;
44204;SDS011;30163;42.698;23.344;2022-10-16T13:13:53;8.70;;;4.28;;
44204;SDS011;30163;42.698;23.344;2022-10-16T13:33:36;5.53;;;3.40;;
44204;SDS011;30163;42.698;23.344;2022-10-16T13:35:52;9.20;;;4.05;;
44204;SDS011;30163;42.698;23.344;2022-10-16T13:38:36;13.68;;;3.58;;
44204;SDS011;30163;42.698;23.344;2022-10-16T13:43:31;9.88;;;3.38;;
44204;SDS011;30163;42.698;23.344;2022-10-16T13:45:58;9.82;;;3.55;;
44204;SDS011;30163;42.698;23.344;2022-10-16T13:48:24;13.15;;;4.18;;
44204;SDS011;30163;42.698;23.344;2022-10-16T13:51:32;8.70;;;3.42;;
44204;SDS011;30163;42.698;23.344;2022-10-16T13:53:40;8.23;;;3.50;;
44204;SDS011;30163;42.698;23.344;2022-10-16T13:56:07;8.15;;;4.13;;
44204;SDS011;30163;42.698;23.344;2022-10-16T13:58:36;8.52;;;4.15;;
44204;SDS011;30163;42.698;23.344;2022-10-16T14:01:03;8.20;;;4.03;;
44204;SDS011;30163;42.698;23.344;2022-10-16T14:03:33;5.80;;;3.38;;
44204;SDS011;30163;42.698;23.344;2022-10-16T14:06:01;5.90;;;3.58;;
44204;SDS011;30163;42.698;23.344;2022-10-16T14:08:28;8.25;;;4.22;;
44204;SDS011;30163;42.698;23.344;2022-10-16T14:10:56;21.45;;;4.47;;
44204;SDS011;30163;42.698;23.344;2022-10-16T14:13:28;15.65;;;4.53;;
44204;SDS011;30163;42.698;23.344;2022-10-16T14:16:17;15.32;;;4.78;;
44204;SDS011;30163;42.698;23.344;2022-10-16T14:21:23;7.45;;;4.32;;
44204;SDS011;30163;42.698;23.344;2022-10-16T14:23:49;7.47;;;4.05;;
44204;SDS011;30163;42.698;23.344;2022-10-16T14:26:16;7.28;;;3.08;;
44204;SDS011;30163;42.698;23.344;2022-10-16T14:28:43;21.80;;;4.57;;
44204;SDS011;30163;42.698;23.344;2022-10-16T14:33:44;6.47;;;3.70;;
44204;SDS011;30163;42.698;23.344;2022-10-16T14:38:35;10.02;;;3.58;;
44204;SDS011;30163;42.698;23.344;2022-10-16T14:41:01;4.88;;;3.15;;
44204;SDS011;30163;42.698;23.344;2022-10-16T14:43:31;9.35;;;3.95;;
44204;SDS011;30163;42.698;23.344;2022-10-16T14:48:26;8.68;;;3.70;;
44204;SDS011;30163;42.698;23.344;2022-10-16T14:50:52;8.05;;;3.92;;
44204;SDS011;30163;42.698;23.344;2022-10-16T14:53:18;15.18;;;4.25;;
44204;SDS011;30163;42.698;23.344;2022-10-16T14:55:43;12.48;;;4.22;;
44204;SDS011;30163;42.698;23.344;2022-10-16T14:58:19;11.13;;;3.83;;
44204;SDS011;30163;42.698;23.344;2022-10-16T15:00:46;10.07;;;4.15;;
44204;SDS011;30163;42.698;23.344;2022-10-16T15:03:12;9.77;;;4.75;;
44204;SDS011;30163;42.698;23.344;2022-10-16T15:05:38;8.98;;;3.83;;
44204;SDS011;30163;42.698;23.344;2022-10-16T15:08:03;8.30;;;3.97;;
44204;SDS011;30163;42.698;23.344;2022-10-16T15:10:33;14.60;;;5.88;;
44204;SDS011;30163;42.698;23.344;2022-10-16T15:13:03;19.58;;;4.90;;
44204;SDS011;30163;42.698;23.344;2022-10-16T15:15:33;8.85;;;4.25;;
44204;SDS011;30163;42.698;23.344;2022-10-16T15:17:59;10.90;;;4.03;;
44204;SDS011;30163;42.698;23.344;2022-10-16T15:20:30;8.60;;;4.55;;
44204;SDS011;30163;42.698;23.344;2022-10-16T15:22:59;11.27;;;4.82;;
44204;SDS011;30163;42.698;23.344;2022-10-16T15:27:54;6.43;;;4.03;;
44204;SDS011;30163;42.698;23.344;2022-10-16T15:30:19;11.15;;;4.47;;
44204;SDS011;30163;42.698;23.344;2022-10-16T15:32:45;17.35;;;4.88;;
44204;SDS011;30163;42.698;23.344;2022-10-16T15:35:10;13.18;;;5.22;;
44204;SDS011;30163;42.698;23.344;2022-10-16T15:37:36;11.27;;;4.15;;
44204;SDS011;30163;42.698;23.344;2022-10-16T15:40:01;14.73;;;4.60;;
44204;SDS011;30163;42.698;23.344;2022-10-16T15:42:27;10.00;;;4.82;;
44204;SDS011;30163;42.698;23.344;2022-10-16T15:44:52;22.90;;;4.70;;
44204;SDS011;30163;42.698;23.344;2022-10-16T15:47:17;11.95;;;4.35;;
44204;SDS011;30163;42.698;23.344;2022-10-16T15:49:43;11.07;;;5.07;;
44204;SDS011;30163;42.698;23.344;2022-10-16T15:52:08;13.13;;;4.93;;
44204;SDS011;30163;42.698;23.344;2022-10-16T15:54:34;19.52;;;5.10;;
44204;SDS011;30163;42.698;23.344;2022-10-16T15:56:59;10.65;;;4.82;;
44204;SDS011;30163;42.698;23.344;2022-10-16T15:59:24;10.45;;;4.97;;
44204;SDS011;30163;42.698;23.344;2022-10-16T16:01:50;13.23;;;4.95;;
44204;SDS011;30163;42.698;23.344;2022-10-16T16:04:15;14.27;;;5.55;;
44204;SDS011;30163;42.698;23.344;2022-10-16T16:06:41;19.98;;;5.93;;
44204;SDS011;30163;42.698;23.344;2022-10-16T16:09:09;12.15;;;6.20;;
44204;SDS011;30163;42.698;23.344;2022-10-16T16:11:36;8.68;;;5.28;;
44204;SDS011;30163;42.698;23.344;2022-10-16T16:14:03;10.68;;;5.72;;
44204;SDS011;30163;42.698;23.344;2022-10-16T16:16:30;16.38;;;7.07;;
44204;SDS011;30163;42.698;23.344;2022-10-16T16:18:55;11.27;;;6.55;;
44204;SDS011;30163;42.698;23.344;2022-10-16T16:21:20;13.30;;;6.90;;
44204;SDS011;30163;42.698;23.344;2022-10-16T16:23:46;26.65;;;7.05;;
44204;SDS011;30163;42.698;23.344;2022-10-16T16:26:16;14.25;;;7.13;;
44204;SDS011;30163;42.698;23.344;2022-10-16T16:28:51;12.30;;;5.35;;
44204;SDS011;30163;42.698;23.344;2022-10-16T16:31:17;21.90;;;6.75;;